sensor_id;sensor_type;location;lat;lon;timestamp;P1;durP1;ratioP1;P2;durP2;ratioP2
59978;SDS011;45839;44.882;20.650;2023-03-01T00:01:58;53.88;;;27.08;;
59978;SDS011;45839;44.882;20.650;2023-03-01T00:04:24;52.88;;;27.05;;
59978;SDS011;45839;44.882;20.650;2023-03-01T00:06:50;51.55;;;27.60;;
59978;SDS011;45839;44.882;20.650;2023-03-01T00:09:16;55.30;;;27.05;;
59978;SDS011;45839;44.882;20.650;2023-03-01T00:11:43;51.13;;;26.63;;
59978;SDS011;45839;44.882;20.650;2023-03-01T00:14:09;51.38;;;27.42;;
59978;SDS011;45839;44.882;20.650;2023-03-01T00:16:39;53.38;;;29.08;;
59978;SDS011;45839;44.882;20.650;2023-03-01T00:19:09;47.40;;;26.10;;
59978;SDS011;45839;44.882;20.650;2023-03-01T00:21:36;47.92;;;26.30;;
59978;SDS011;45839;44.882;20.650;2023-03-01T00:24:03;48.45;;;27.23;;
59978;SDS011;45839;44.882;20.650;2023-03-01T00:26:29;48.78;;;27.20;;
59978;SDS011;45839;44.882;20.650;2023-03-01T00:28:56;48.35;;;26.55;;
59978;SDS011;45839;44.882;20.650;2023-03-01T00:31:23;43.60;;;24.90;;
59978;SDS011;45839;44.882;20.650;2023-03-01T00:33:52;46.55;;;26.95;;
59978;SDS011;45839;44.882;20.650;2023-03-01T00:36:18;43.47;;;25.50;;
59978;SDS011;45839;44.882;20.650;2023-03-01T00:38:45;45.92;;;25.83;;
59978;SDS011;45839;44.882;20.650;2023-03-01T00:41:14;40.45;;;24.10;;
59978;SDS011;45839;44.882;20.650;2023-03-01T00:43:41;39.83;;;22.33;;
59978;SDS011;45839;44.882;20.650;2023-03-01T00:46:11;37.92;;;23.13;;
59978;SDS011;45839;44.882;20.650;2023-03-01T00:48:38;36.53;;;23.15;;
59978;SDS011;45839;44.882;20.650;2023-03-01T00:51:05;39.10;;;23.10;;
59978;SDS011;45839;44.882;20.650;2023-03-01T00:53:31;33.38;;;21.95;;
59978;SDS011;45839;44.882;20.650;2023-03-01T00:55:57;35.15;;;22.38;;
59978;SDS011;45839;44.882;20.650;2023-03-01T00:58:23;31.33;;;20.90;;
59978;SDS011;45839;44.882;20.650;2023-03-01T01:00:49;35.60;;;22.10;;
59978;SDS011;45839;44.882;20.650;2023-03-01T01:03:17;30.42;;;20.40;;
59978;SDS011;45839;44.882;20.650;2023-03-01T01:05:43;31.40;;;19.73;;
59978;SDS011;45839;44.882;20.650;2023-03-01T01:08:09;28.50;;;18.90;;
59978;SDS011;45839;44.882;20.650;2023-03-01T01:10:35;24.98;;;17.92;;
59978;SDS011;45839;44.882;20.650;2023-03-01T01:13:02;26.65;;;18.08;;
59978;SDS011;45839;44.882;20.650;2023-03-01T01:15:28;25.30;;;18.45;;
59978;SDS011;45839;44.882;20.650;2023-03-01T01:17:54;25.15;;;18.00;;
59978;SDS011;45839;44.882;20.650;2023-03-01T01:20:20;23.95;;;17.45;;
59978;SDS011;45839;44.882;20.650;2023-03-01T01:22:46;26.30;;;18.00;;
59978;SDS011;45839;44.882;20.650;2023-03-01T01:25:12;24.65;;;17.80;;
59978;SDS011;45839;44.882;20.650;2023-03-01T01:27:38;25.50;;;17.70;;
59978;SDS011;45839;44.882;20.650;2023-03-01T01:30:04;23.27;;;17.65;;
59978;SDS011;45839;44.882;20.650;2023-03-01T01:32:31;23.17;;;17.38;;
59978;SDS011;45839;44.882;20.650;2023-03-01T01:34:57;27.70;;;18.17;;
59978;SDS011;45839;44.882;20.650;2023-03-01T01:37:23;27.08;;;18.63;;
59978;SDS011;45839;44.882;20.650;2023-03-01T01:39:55;26.40;;;18.63;;
59978;SDS011;45839;44.882;20.650;2023-03-01T01:42:21;26.08;;;18.42;;
59978;SDS011;45839;44.882;20.650;2023-03-01T01:44:47;28.02;;;20.58;;
59978;SDS011;45839;44.882;20.650;2023-03-01T01:47:17;35.65;;;25.02;;
59978;SDS011;45839;44.882;20.650;2023-03-01T01:49:53;33.75;;;24.70;;
59978;SDS011;45839;44.882;20.650;2023-03-01T01:52:21;32.03;;;23.60;;
59978;SDS011;45839;44.882;20.650;2023-03-01T01:57:14;35.65;;;23.15;;
59978;SDS011;45839;44.882;20.650;2023-03-01T01:59:42;29.98;;;22.05;;
59978;SDS011;45839;44.882;20.650;2023-03-01T02:02:09;29.40;;;21.13;;
59978;SDS011;45839;44.882;20.650;2023-03-01T02:04:35;32.17;;;22.10;;
59978;SDS011;45839;44.882;20.650;2023-03-01T02:07:03;31.90;;;22.23;;
59978;SDS011;45839;44.882;20.650;2023-03-01T02:09:32;30.88;;;22.90;;
59978;SDS011;45839;44.882;20.650;2023-03-01T02:11:59;35.25;;;25.58;;
59978;SDS011;45839;44.882;20.650;2023-03-01T02:14:25;32.75;;;24.55;;
59978;SDS011;45839;44.882;20.650;2023-03-01T02:16:51;33.10;;;23.60;;
59978;SDS011;45839;44.882;20.650;2023-03-01T02:19:40;31.33;;;22.98;;
59978;SDS011;45839;44.882;20.650;2023-03-01T02:22:27;28.63;;;21.00;;
59978;SDS011;45839;44.882;20.650;2023-03-01T02:25:06;28.88;;;21.30;;
59978;SDS011;45839;44.882;20.650;2023-03-01T02:27:38;29.48;;;21.40;;
59978;SDS011;45839;44.882;20.650;2023-03-01T02:30:06;27.05;;;19.50;;
59978;SDS011;45839;44.882;20.650;2023-03-01T02:32:33;28.08;;;20.00;;
59978;SDS011;45839;44.882;20.650;2023-03-01T02:35:00;27.23;;;19.75;;
59978;SDS011;45839;44.882;20.650;2023-03-01T02:37:26;29.45;;;21.38;;
59978;SDS011;45839;44.882;20.650;2023-03-01T02:39:58;33.70;;;24.92;;
59978;SDS011;45839;44.882;20.650;2023-03-01T02:42:26;34.65;;;26.23;;
59978;SDS011;45839;44.882;20.650;2023-03-01T02:44:52;33.00;;;24.30;;
59978;SDS011;45839;44.882;20.650;2023-03-01T02:47:18;34.45;;;23.88;;
59978;SDS011;45839;44.882;20.650;2023-03-01T02:49:44;32.00;;;22.90;;
59978;SDS011;45839;44.882;20.650;2023-03-01T02:55:00;30.45;;;21.98;;
59978;SDS011;45839;44.882;20.650;2023-03-01T02:57:27;30.17;;;21.08;;
59978;SDS011;45839;44.882;20.650;2023-03-01T02:59:54;28.17;;;21.10;;
59978;SDS011;45839;44.882;20.650;2023-03-01T03:02:24;29.88;;;21.83;;
59978;SDS011;45839;44.882;20.650;2023-03-01T03:05:10;29.15;;;20.30;;
59978;SDS011;45839;44.882;20.650;2023-03-01T03:07:38;28.02;;;20.27;;
59978;SDS011;45839;44.882;20.650;2023-03-01T03:10:05;28.77;;;19.83;;
59978;SDS011;45839;44.882;20.650;2023-03-01T03:12:31;29.08;;;20.00;;
59978;SDS011;45839;44.882;20.650;2023-03-01T03:14:57;27.15;;;19.65;;
59978;SDS011;45839;44.882;20.650;2023-03-01T03:17:24;28.58;;;20.38;;
59978;SDS011;45839;44.882;20.650;2023-03-01T03:19:50;27.10;;;19.52;;
59978;SDS011;45839;44.882;20.650;2023-03-01T03:22:16;27.88;;;19.67;;
59978;SDS011;45839;44.882;20.650;2023-03-01T03:24:42;31.10;;;20.02;;
59978;SDS011;45839;44.882;20.650;2023-03-01T03:27:08;27.42;;;20.42;;
59978;SDS011;45839;44.882;20.650;2023-03-01T03:29:34;27.85;;;19.98;;
59978;SDS011;45839;44.882;20.650;2023-03-01T03:32:00;29.10;;;20.10;;
59978;SDS011;45839;44.882;20.650;2023-03-01T03:34:26;28.90;;;20.30;;
59978;SDS011;45839;44.882;20.650;2023-03-01T03:36:53;27.92;;;19.35;;
59978;SDS011;45839;44.882;20.650;2023-03-01T03:39:24;27.90;;;20.40;;
59978;SDS011;45839;44.882;20.650;2023-03-01T03:41:50;28.50;;;20.75;;
59978;SDS011;45839;44.882;20.650;2023-03-01T03:44:16;29.10;;;21.45;;
59978;SDS011;45839;44.882;20.650;2023-03-01T03:46:42;33.33;;;24.75;;
59978;SDS011;45839;44.882;20.650;2023-03-01T03:49:08;38.08;;;27.13;;
59978;SDS011;45839;44.882;20.650;2023-03-01T03:51:34;35.03;;;26.65;;
59978;SDS011;45839;44.882;20.650;2023-03-01T03:54:00;36.05;;;26.83;;
59978;SDS011;45839;44.882;20.650;2023-03-01T03:56:26;36.20;;;26.92;;
59978;SDS011;45839;44.882;20.650;2023-03-01T03:58:52;36.90;;;26.30;;
59978;SDS011;45839;44.882;20.650;2023-03-01T04:01:18;39.85;;;27.08;;
59978;SDS011;45839;44.882;20.650;2023-03-01T04:03:44;37.30;;;27.60;;
59978;SDS011;45839;44.882;20.650;2023-03-01T04:06:12;40.65;;;29.15;;
59978;SDS011;45839;44.882;20.650;2023-03-01T04:08:38;43.67;;;31.23;;
59978;SDS011;45839;44.882;20.650;2023-03-01T04:11:04;39.95;;;28.80;;
59978;SDS011;45839;44.882;20.650;2023-03-01T04:13:49;41.58;;;29.73;;
59978;SDS011;45839;44.882;20.650;2023-03-01T04:16:16;41.10;;;29.58;;
59978;SDS011;45839;44.882;20.650;2023-03-01T04:18:42;42.00;;;29.38;;
59978;SDS011;45839;44.882;20.650;2023-03-01T04:21:09;41.72;;;30.05;;
59978;SDS011;45839;44.882;20.650;2023-03-01T04:23:38;40.75;;;29.17;;
59978;SDS011;45839;44.882;20.650;2023-03-01T04:26:05;41.10;;;28.52;;
59978;SDS011;45839;44.882;20.650;2023-03-01T04:28:36;41.53;;;28.98;;
59978;SDS011;45839;44.882;20.650;2023-03-01T04:31:12;38.28;;;28.52;;
59978;SDS011;45839;44.882;20.650;2023-03-01T04:33:43;39.58;;;29.02;;
59978;SDS011;45839;44.882;20.650;2023-03-01T04:36:09;40.22;;;29.52;;
59978;SDS011;45839;44.882;20.650;2023-03-01T04:38:36;37.63;;;27.48;;
59978;SDS011;45839;44.882;20.650;2023-03-01T04:41:05;38.95;;;28.90;;
59978;SDS011;45839;44.882;20.650;2023-03-01T04:43:31;38.65;;;28.95;;
59978;SDS011;45839;44.882;20.650;2023-03-01T04:46:02;39.55;;;28.25;;
59978;SDS011;45839;44.882;20.650;2023-03-01T04:48:29;39.83;;;29.13;;
59978;SDS011;45839;44.882;20.650;2023-03-01T04:50:55;43.53;;;30.35;;
59978;SDS011;45839;44.882;20.650;2023-03-01T04:53:21;42.90;;;30.35;;
59978;SDS011;45839;44.882;20.650;2023-03-01T04:55:47;41.05;;;29.92;;
59978;SDS011;45839;44.882;20.650;2023-03-01T04:58:13;38.92;;;28.67;;
59978;SDS011;45839;44.882;20.650;2023-03-01T05:00:39;40.00;;;28.77;;
59978;SDS011;45839;44.882;20.650;2023-03-01T05:03:05;40.15;;;28.70;;
59978;SDS011;45839;44.882;20.650;2023-03-01T05:05:33;35.65;;;26.73;;
59978;SDS011;45839;44.882;20.650;2023-03-01T05:08:00;35.60;;;25.85;;
59978;SDS011;45839;44.882;20.650;2023-03-01T05:10:28;34.50;;;25.08;;
59978;SDS011;45839;44.882;20.650;2023-03-01T05:12:55;32.13;;;24.25;;
59978;SDS011;45839;44.882;20.650;2023-03-01T05:15:22;34.00;;;25.50;;
59978;SDS011;45839;44.882;20.650;2023-03-01T05:17:50;31.70;;;23.40;;
59978;SDS011;45839;44.882;20.650;2023-03-01T05:20:16;41.65;;;31.52;;
59978;SDS011;45839;44.882;20.650;2023-03-01T05:22:43;43.30;;;31.20;;
59978;SDS011;45839;44.882;20.650;2023-03-01T05:25:09;43.22;;;30.58;;
59978;SDS011;45839;44.882;20.650;2023-03-01T05:27:35;38.45;;;27.13;;
59978;SDS011;45839;44.882;20.650;2023-03-01T05:30:02;35.85;;;26.65;;
59978;SDS011;45839;44.882;20.650;2023-03-01T05:32:39;35.47;;;25.73;;
59978;SDS011;45839;44.882;20.650;2023-03-01T05:35:05;32.08;;;24.00;;
59978;SDS011;45839;44.882;20.650;2023-03-01T05:37:31;31.58;;;23.77;;
59978;SDS011;45839;44.882;20.650;2023-03-01T05:39:57;32.05;;;22.83;;
59978;SDS011;45839;44.882;20.650;2023-03-01T05:42:23;32.45;;;23.63;;
59978;SDS011;45839;44.882;20.650;2023-03-01T05:44:49;27.77;;;22.05;;
59978;SDS011;45839;44.882;20.650;2023-03-01T05:47:15;34.00;;;24.77;;
59978;SDS011;45839;44.882;20.650;2023-03-01T05:49:41;35.22;;;24.70;;
59978;SDS011;45839;44.882;20.650;2023-03-01T05:52:07;36.33;;;24.73;;
59978;SDS011;45839;44.882;20.650;2023-03-01T05:54:33;32.60;;;22.85;;
59978;SDS011;45839;44.882;20.650;2023-03-01T05:56:59;35.47;;;24.98;;
59978;SDS011;45839;44.882;20.650;2023-03-01T05:59:25;39.80;;;27.77;;
59978;SDS011;45839;44.882;20.650;2023-03-01T06:01:51;52.75;;;34.25;;
59978;SDS011;45839;44.882;20.650;2023-03-01T06:04:18;53.10;;;34.38;;
59978;SDS011;45839;44.882;20.650;2023-03-01T06:06:44;45.75;;;30.90;;
59978;SDS011;45839;44.882;20.650;2023-03-01T06:09:10;40.00;;;27.70;;
59978;SDS011;45839;44.882;20.650;2023-03-01T06:11:36;37.65;;;26.50;;
59978;SDS011;45839;44.882;20.650;2023-03-01T06:14:03;35.47;;;24.17;;
59978;SDS011;45839;44.882;20.650;2023-03-01T06:16:29;31.25;;;22.98;;
59978;SDS011;45839;44.882;20.650;2023-03-01T06:18:55;31.20;;;23.05;;
59978;SDS011;45839;44.882;20.650;2023-03-01T06:21:21;33.17;;;23.30;;
59978;SDS011;45839;44.882;20.650;2023-03-01T06:23:47;34.50;;;24.08;;
59978;SDS011;45839;44.882;20.650;2023-03-01T06:26:13;33.30;;;24.48;;
59978;SDS011;45839;44.882;20.650;2023-03-01T06:28:39;35.33;;;24.92;;
59978;SDS011;45839;44.882;20.650;2023-03-01T06:31:05;33.92;;;23.00;;
59978;SDS011;45839;44.882;20.650;2023-03-01T06:33:33;30.88;;;22.55;;
59978;SDS011;45839;44.882;20.650;2023-03-01T06:36:00;27.48;;;19.80;;
59978;SDS011;45839;44.882;20.650;2023-03-01T06:38:27;24.67;;;18.77;;
59978;SDS011;45839;44.882;20.650;2023-03-01T06:40:54;28.45;;;19.13;;
59978;SDS011;45839;44.882;20.650;2023-03-01T06:43:21;26.70;;;19.13;;
59978;SDS011;45839;44.882;20.650;2023-03-01T06:45:48;26.20;;;19.08;;
59978;SDS011;45839;44.882;20.650;2023-03-01T06:48:14;29.80;;;20.70;;
59978;SDS011;45839;44.882;20.650;2023-03-01T06:50:40;28.85;;;19.48;;
59978;SDS011;45839;44.882;20.650;2023-03-01T06:53:06;30.35;;;20.40;;
59978;SDS011;45839;44.882;20.650;2023-03-01T06:55:32;29.52;;;20.65;;
59978;SDS011;45839;44.882;20.650;2023-03-01T06:57:59;27.58;;;20.17;;
59978;SDS011;45839;44.882;20.650;2023-03-01T07:00:26;25.05;;;18.38;;
59978;SDS011;45839;44.882;20.650;2023-03-01T07:02:52;26.33;;;18.05;;
59978;SDS011;45839;44.882;20.650;2023-03-01T07:05:18;26.80;;;18.73;;
59978;SDS011;45839;44.882;20.650;2023-03-01T07:07:44;23.23;;;15.63;;
59978;SDS011;45839;44.882;20.650;2023-03-01T07:10:10;21.23;;;14.55;;
59978;SDS011;45839;44.882;20.650;2023-03-01T07:12:37;19.17;;;13.75;;
59978;SDS011;45839;44.882;20.650;2023-03-01T07:15:03;22.17;;;14.57;;
59978;SDS011;45839;44.882;20.650;2023-03-01T07:17:29;18.33;;;12.85;;
59978;SDS011;45839;44.882;20.650;2023-03-01T07:19:56;17.90;;;12.35;;
59978;SDS011;45839;44.882;20.650;2023-03-01T07:22:22;16.92;;;11.68;;
59978;SDS011;45839;44.882;20.650;2023-03-01T07:24:48;15.32;;;10.35;;
59978;SDS011;45839;44.882;20.650;2023-03-01T07:27:14;15.38;;;10.68;;
59978;SDS011;45839;44.882;20.650;2023-03-01T07:29:40;17.40;;;10.60;;
59978;SDS011;45839;44.882;20.650;2023-03-01T07:32:06;15.85;;;10.48;;
59978;SDS011;45839;44.882;20.650;2023-03-01T07:34:32;15.93;;;10.18;;
59978;SDS011;45839;44.882;20.650;2023-03-01T07:36:58;17.42;;;12.07;;
59978;SDS011;45839;44.882;20.650;2023-03-01T07:39:24;17.52;;;11.63;;
59978;SDS011;45839;44.882;20.650;2023-03-01T07:41:51;16.80;;;10.70;;
59978;SDS011;45839;44.882;20.650;2023-03-01T07:44:17;18.98;;;13.00;;
59978;SDS011;45839;44.882;20.650;2023-03-01T07:46:43;17.95;;;12.57;;
59978;SDS011;45839;44.882;20.650;2023-03-01T07:49:09;16.55;;;11.32;;
59978;SDS011;45839;44.882;20.650;2023-03-01T07:51:35;13.40;;;9.60;;
59978;SDS011;45839;44.882;20.650;2023-03-01T07:54:01;15.15;;;9.52;;
59978;SDS011;45839;44.882;20.650;2023-03-01T07:56:27;14.02;;;9.48;;
59978;SDS011;45839;44.882;20.650;2023-03-01T07:58:53;13.02;;;8.60;;
59978;SDS011;45839;44.882;20.650;2023-03-01T08:01:20;12.35;;;8.10;;
59978;SDS011;45839;44.882;20.650;2023-03-01T08:03:46;11.27;;;7.68;;
59978;SDS011;45839;44.882;20.650;2023-03-01T08:06:14;12.35;;;7.95;;
59978;SDS011;45839;44.882;20.650;2023-03-01T08:08:40;13.07;;;7.13;;
59978;SDS011;45839;44.882;20.650;2023-03-01T08:11:07;11.10;;;7.75;;
59978;SDS011;45839;44.882;20.650;2023-03-01T08:13:33;13.65;;;7.30;;
59978;SDS011;45839;44.882;20.650;2023-03-01T08:16:03;11.82;;;7.07;;
59978;SDS011;45839;44.882;20.650;2023-03-01T08:18:29;11.38;;;7.55;;
59978;SDS011;45839;44.882;20.650;2023-03-01T08:20:55;11.43;;;7.50;;
59978;SDS011;45839;44.882;20.650;2023-03-01T08:23:21;13.75;;;8.32;;
59978;SDS011;45839;44.882;20.650;2023-03-01T08:25:47;14.25;;;8.80;;
59978;SDS011;45839;44.882;20.650;2023-03-01T08:28:13;14.48;;;7.78;;
59978;SDS011;45839;44.882;20.650;2023-03-01T08:30:39;14.02;;;8.00;;
59978;SDS011;45839;44.882;20.650;2023-03-01T08:33:05;13.55;;;8.00;;
59978;SDS011;45839;44.882;20.650;2023-03-01T08:35:31;12.70;;;7.18;;
59978;SDS011;45839;44.882;20.650;2023-03-01T08:37:57;11.38;;;6.88;;
59978;SDS011;45839;44.882;20.650;2023-03-01T08:40:24;12.13;;;7.55;;
59978;SDS011;45839;44.882;20.650;2023-03-01T08:42:50;11.27;;;7.47;;
59978;SDS011;45839;44.882;20.650;2023-03-01T08:45:16;11.63;;;7.90;;
59978;SDS011;45839;44.882;20.650;2023-03-01T08:47:43;10.70;;;6.40;;
59978;SDS011;45839;44.882;20.650;2023-03-01T08:50:10;9.93;;;6.03;;
59978;SDS011;45839;44.882;20.650;2023-03-01T08:52:36;9.55;;;5.97;;
59978;SDS011;45839;44.882;20.650;2023-03-01T08:55:02;9.93;;;6.13;;
59978;SDS011;45839;44.882;20.650;2023-03-01T08:57:28;10.23;;;6.05;;
59978;SDS011;45839;44.882;20.650;2023-03-01T08:59:55;8.32;;;5.18;;
59978;SDS011;45839;44.882;20.650;2023-03-01T09:02:21;10.07;;;5.50;;
59978;SDS011;45839;44.882;20.650;2023-03-01T09:04:47;10.82;;;6.00;;
59978;SDS011;45839;44.882;20.650;2023-03-01T09:07:13;9.30;;;6.30;;
59978;SDS011;45839;44.882;20.650;2023-03-01T09:09:39;9.32;;;5.47;;
59978;SDS011;45839;44.882;20.650;2023-03-01T09:12:05;11.15;;;6.30;;
59978;SDS011;45839;44.882;20.650;2023-03-01T09:14:32;9.63;;;5.60;;
59978;SDS011;45839;44.882;20.650;2023-03-01T09:16:59;10.15;;;6.28;;
59978;SDS011;45839;44.882;20.650;2023-03-01T09:19:27;10.85;;;7.45;;
59978;SDS011;45839;44.882;20.650;2023-03-01T09:21:53;12.43;;;8.02;;
59978;SDS011;45839;44.882;20.650;2023-03-01T09:24:21;11.65;;;7.90;;
59978;SDS011;45839;44.882;20.650;2023-03-01T09:26:47;11.18;;;7.30;;
59978;SDS011;45839;44.882;20.650;2023-03-01T09:29:14;11.07;;;7.20;;
59978;SDS011;45839;44.882;20.650;2023-03-01T09:31:40;9.38;;;5.80;;
59978;SDS011;45839;44.882;20.650;2023-03-01T09:34:06;12.07;;;7.40;;
59978;SDS011;45839;44.882;20.650;2023-03-01T09:36:33;8.40;;;4.97;;
59978;SDS011;45839;44.882;20.650;2023-03-01T09:38:59;9.13;;;5.25;;
59978;SDS011;45839;44.882;20.650;2023-03-01T09:44:27;10.15;;;5.32;;
59978;SDS011;45839;44.882;20.650;2023-03-01T09:46:44;10.00;;;5.80;;
59978;SDS011;45839;44.882;20.650;2023-03-01T09:49:12;12.10;;;6.00;;
59978;SDS011;45839;44.882;20.650;2023-03-01T09:51:42;14.93;;;8.13;;
59978;SDS011;45839;44.882;20.650;2023-03-01T09:54:08;9.10;;;5.95;;
59978;SDS011;45839;44.882;20.650;2023-03-01T09:59:13;11.27;;;7.82;;
59978;SDS011;45839;44.882;20.650;2023-03-01T10:01:59;10.23;;;6.28;;
59978;SDS011;45839;44.882;20.650;2023-03-01T10:04:28;11.30;;;4.97;;
59978;SDS011;45839;44.882;20.650;2023-03-01T10:09:28;9.30;;;5.40;;
59978;SDS011;45839;44.882;20.650;2023-03-01T10:11:55;9.57;;;4.63;;
59978;SDS011;45839;44.882;20.650;2023-03-01T10:14:33;7.93;;;4.63;;
59978;SDS011;45839;44.882;20.650;2023-03-01T10:19:38;8.90;;;4.95;;
59978;SDS011;45839;44.882;20.650;2023-03-01T10:22:11;9.05;;;4.63;;
59978;SDS011;45839;44.882;20.650;2023-03-01T10:24:39;7.70;;;3.70;;
59978;SDS011;45839;44.882;20.650;2023-03-01T10:27:07;10.13;;;4.75;;
59978;SDS011;45839;44.882;20.650;2023-03-01T10:29:40;8.18;;;4.35;;
59978;SDS011;45839;44.882;20.650;2023-03-01T10:32:10;8.65;;;3.78;;
59978;SDS011;45839;44.882;20.650;2023-03-01T10:34:36;12.05;;;4.40;;
59978;SDS011;45839;44.882;20.650;2023-03-01T10:37:11;11.93;;;4.07;;
59978;SDS011;45839;44.882;20.650;2023-03-01T10:39:37;7.90;;;3.83;;
59978;SDS011;45839;44.882;20.650;2023-03-01T10:42:22;7.20;;;4.00;;
59978;SDS011;45839;44.882;20.650;2023-03-01T10:44:50;11.98;;;4.40;;
59978;SDS011;45839;44.882;20.650;2023-03-01T10:47:18;7.07;;;3.58;;
59978;SDS011;45839;44.882;20.650;2023-03-01T10:49:55;8.35;;;3.42;;
59978;SDS011;45839;44.882;20.650;2023-03-01T10:52:29;10.10;;;4.70;;
59978;SDS011;45839;44.882;20.650;2023-03-01T10:54:57;8.75;;;4.50;;
59978;SDS011;45839;44.882;20.650;2023-03-01T11:00:14;10.10;;;3.60;;
59978;SDS011;45839;44.882;20.650;2023-03-01T11:02:46;8.30;;;3.80;;
59978;SDS011;45839;44.882;20.650;2023-03-01T11:07:54;11.00;;;4.22;;
59978;SDS011;45839;44.882;20.650;2023-03-01T11:12:47;9.52;;;3.65;;
59978;SDS011;45839;44.882;20.650;2023-03-01T11:15:26;10.07;;;3.88;;
59978;SDS011;45839;44.882;20.650;2023-03-01T11:17:54;13.75;;;4.50;;
59978;SDS011;45839;44.882;20.650;2023-03-01T11:22:50;10.13;;;4.22;;
59978;SDS011;45839;44.882;20.650;2023-03-01T11:25:19;10.27;;;4.40;;
59978;SDS011;45839;44.882;20.650;2023-03-01T11:27:46;13.13;;;3.83;;
59978;SDS011;45839;44.882;20.650;2023-03-01T11:32:50;9.32;;;3.80;;
59978;SDS011;45839;44.882;20.650;2023-03-01T11:35:18;10.00;;;3.47;;
59978;SDS011;45839;44.882;20.650;2023-03-01T11:40:29;10.65;;;3.80;;
59978;SDS011;45839;44.882;20.650;2023-03-01T11:43:01;9.13;;;4.18;;
59978;SDS011;45839;44.882;20.650;2023-03-01T11:50:53;11.15;;;3.63;;
59978;SDS011;45839;44.882;20.650;2023-03-01T11:53:28;7.70;;;3.75;;
59978;SDS011;45839;44.882;20.650;2023-03-01T11:56:03;7.88;;;4.03;;
59978;SDS011;45839;44.882;20.650;2023-03-01T11:58:40;8.95;;;4.10;;
59978;SDS011;45839;44.882;20.650;2023-03-01T12:06:12;9.23;;;4.90;;
59978;SDS011;45839;44.882;20.650;2023-03-01T12:08:51;9.75;;;4.63;;
59978;SDS011;45839;44.882;20.650;2023-03-01T12:14:30;7.45;;;4.05;;
59978;SDS011;45839;44.882;20.650;2023-03-01T12:27:39;8.05;;;4.20;;
59978;SDS011;45839;44.882;20.650;2023-03-01T12:32:51;6.70;;;3.80;;
59978;SDS011;45839;44.882;20.650;2023-03-01T12:37:58;7.65;;;3.60;;
59978;SDS011;45839;44.882;20.650;2023-03-01T12:48:35;7.65;;;3.83;;
59978;SDS011;45839;44.882;20.650;2023-03-01T12:51:03;7.07;;;4.15;;
59978;SDS011;45839;44.882;20.650;2023-03-01T12:53:32;6.97;;;3.90;;
59978;SDS011;45839;44.882;20.650;2023-03-01T12:56:10;7.57;;;4.25;;
59978;SDS011;45839;44.882;20.650;2023-03-01T13:09:26;12.32;;;5.03;;
59978;SDS011;45839;44.882;20.650;2023-03-01T13:11:49;10.57;;;5.55;;
59978;SDS011;45839;44.882;20.650;2023-03-01T13:16:52;9.50;;;5.53;;
59978;SDS011;45839;44.882;20.650;2023-03-01T13:21:45;8.32;;;4.85;;
59978;SDS011;45839;44.882;20.650;2023-03-01T13:24:27;10.10;;;5.32;;
59978;SDS011;45839;44.882;20.650;2023-03-01T13:27:36;9.63;;;4.87;;
59978;SDS011;45839;44.882;20.650;2023-03-01T13:29:56;8.63;;;5.00;;
59978;SDS011;45839;44.882;20.650;2023-03-01T13:32:26;10.00;;;4.45;;
59978;SDS011;45839;44.882;20.650;2023-03-01T13:37:40;8.68;;;5.28;;
59978;SDS011;45839;44.882;20.650;2023-03-01T13:42:43;7.40;;;4.60;;
59978;SDS011;45839;44.882;20.650;2023-03-01T13:45:16;11.25;;;4.97;;
59978;SDS011;45839;44.882;20.650;2023-03-01T13:47:43;9.85;;;5.30;;
59978;SDS011;45839;44.882;20.650;2023-03-01T13:50:32;11.23;;;5.65;;
59978;SDS011;45839;44.882;20.650;2023-03-01T13:53:00;7.70;;;5.00;;
59978;SDS011;45839;44.882;20.650;2023-03-01T13:58:04;8.50;;;5.05;;
59978;SDS011;45839;44.882;20.650;2023-03-01T14:00:35;10.32;;;5.72;;
59978;SDS011;45839;44.882;20.650;2023-03-01T14:03:02;11.07;;;6.00;;
59978;SDS011;45839;44.882;20.650;2023-03-01T14:05:29;12.10;;;6.97;;
59978;SDS011;45839;44.882;20.650;2023-03-01T14:07:55;8.88;;;5.10;;
59978;SDS011;45839;44.882;20.650;2023-03-01T14:10:21;8.50;;;4.68;;
59978;SDS011;45839;44.882;20.650;2023-03-01T14:15:27;8.80;;;5.53;;
59978;SDS011;45839;44.882;20.650;2023-03-01T14:20:28;10.00;;;5.70;;
59978;SDS011;45839;44.882;20.650;2023-03-01T14:22:55;11.73;;;7.32;;
59978;SDS011;45839;44.882;20.650;2023-03-01T14:25:24;9.88;;;6.18;;
59978;SDS011;45839;44.882;20.650;2023-03-01T14:27:51;10.82;;;6.20;;
59978;SDS011;45839;44.882;20.650;2023-03-01T14:32:56;10.57;;;6.18;;
59978;SDS011;45839;44.882;20.650;2023-03-01T14:35:23;11.23;;;7.00;;
59978;SDS011;45839;44.882;20.650;2023-03-01T14:37:50;10.25;;;6.40;;
59978;SDS011;45839;44.882;20.650;2023-03-01T14:40:20;11.05;;;6.10;;
59978;SDS011;45839;44.882;20.650;2023-03-01T14:42:47;12.45;;;6.55;;
59978;SDS011;45839;44.882;20.650;2023-03-01T14:45:13;14.75;;;7.80;;
59978;SDS011;45839;44.882;20.650;2023-03-01T14:47:39;10.40;;;6.30;;
59978;SDS011;45839;44.882;20.650;2023-03-01T14:50:10;9.07;;;6.22;;
59978;SDS011;45839;44.882;20.650;2023-03-01T14:52:42;10.02;;;5.95;;
59978;SDS011;45839;44.882;20.650;2023-03-01T14:55:15;9.10;;;6.07;;
59978;SDS011;45839;44.882;20.650;2023-03-01T14:57:43;12.15;;;7.22;;
59978;SDS011;45839;44.882;20.650;2023-03-01T15:00:10;11.02;;;6.28;;
59978;SDS011;45839;44.882;20.650;2023-03-01T15:02:42;11.50;;;6.03;;
59978;SDS011;45839;44.882;20.650;2023-03-01T15:05:08;9.88;;;6.00;;
59978;SDS011;45839;44.882;20.650;2023-03-01T15:07:36;10.38;;;6.15;;
59978;SDS011;45839;44.882;20.650;2023-03-01T15:10:04;8.90;;;5.82;;
59978;SDS011;45839;44.882;20.650;2023-03-01T15:14:57;9.18;;;5.53;;
59978;SDS011;45839;44.882;20.650;2023-03-01T15:17:27;9.90;;;5.25;;
59978;SDS011;45839;44.882;20.650;2023-03-01T15:19:56;9.98;;;6.03;;
59978;SDS011;45839;44.882;20.650;2023-03-01T15:22:22;10.30;;;5.80;;
59978;SDS011;45839;44.882;20.650;2023-03-01T15:24:50;17.15;;;7.25;;
59978;SDS011;45839;44.882;20.650;2023-03-01T15:27:17;13.70;;;6.85;;
59978;SDS011;45839;44.882;20.650;2023-03-01T15:32:24;11.95;;;6.45;;
59978;SDS011;45839;44.882;20.650;2023-03-01T15:34:51;9.38;;;5.78;;
59978;SDS011;45839;44.882;20.650;2023-03-01T15:40:02;10.02;;;5.95;;
59978;SDS011;45839;44.882;20.650;2023-03-01T15:45:11;14.02;;;7.60;;
59978;SDS011;45839;44.882;20.650;2023-03-01T15:47:55;12.25;;;6.63;;
59978;SDS011;45839;44.882;20.650;2023-03-01T15:50:30;11.15;;;6.05;;
59978;SDS011;45839;44.882;20.650;2023-03-01T15:52:58;13.25;;;6.72;;
59978;SDS011;45839;44.882;20.650;2023-03-01T15:55:25;11.60;;;6.78;;
59978;SDS011;45839;44.882;20.650;2023-03-01T15:57:58;10.88;;;6.30;;
59978;SDS011;45839;44.882;20.650;2023-03-01T16:00:25;13.05;;;6.10;;
59978;SDS011;45839;44.882;20.650;2023-03-01T16:02:51;9.98;;;5.80;;
59978;SDS011;45839;44.882;20.650;2023-03-01T16:07:43;13.95;;;6.97;;
59978;SDS011;45839;44.882;20.650;2023-03-01T16:10:09;13.13;;;7.85;;
59978;SDS011;45839;44.882;20.650;2023-03-01T16:12:35;14.73;;;8.88;;
59978;SDS011;45839;44.882;20.650;2023-03-01T16:15:04;12.57;;;7.18;;